Time,TemperatureF,DewpointF,PressureIn,WindDirection,WindDirectionDegrees,WindSpeedMPH,WindSpeedGustMPH,Humidity,HourlyPrecipIn,Conditions,Clouds,dailyrainin,SoftwareType,DateUTC
2013-09-08 00:23:00,81.0,67.0,29.91,SSW,211,3.0,7.0,62,0.00,,,0.00,,2013-09-08 05:23:00,
2013-09-08 00:52:00,80.0,66.0,29.91,SSW,208,1.0,4.0,63,0.00,,,0.00,,2013-09-08 05:52:00,
2013-09-08 01:13:00,80.0,67.0,29.91,SSW,200,2.0,5.0,65,0.00,,,0.00,,2013-09-08 06:13:00,
2013-09-08 01:21:00,79.0,67.0,29.91,SW,231,2.0,4.0,66,0.00,,,0.00,,2013-09-08 06:21:00,
2013-09-08 01:53:00,78.0,67.0,29.92,WSW,244,1.0,3.0,68,0.00,,,0.00,,2013-09-08 06:53:00,
2013-09-08 02:12:00,78.0,67.0,29.92,WSW,243,0.0,1.0,68,0.00,,,0.00,,2013-09-08 07:12:00,
2013-09-08 02:23:00,76.0,66.0,29.92,WSW,243,0.0,1.0,71,0.00,,,0.00,,2013-09-08 07:23:00,
2013-09-08 02:52:00,74.0,66.0,29.92,North,5,0.0,1.0,76,0.00,,,0.00,,2013-09-08 07:52:00,
2013-09-08 03:22:00,73.0,66.0,29.92,North,5,0.0,0.0,79,0.00,,,0.00,,2013-09-08 08:22:00,
2013-09-08 03:52:00,72.0,65.0,29.92,North,5,0.0,0.0,80,0.00,,,0.00,,2013-09-08 08:52:00,
2013-09-08 04:22:00,71.0,66.0,29.93,North,5,0.0,0.0,85,0.00,,,0.00,,2013-09-08 09:22:00,
2013-09-08 04:54:00,70.0,66.0,29.92,NE,51,0.0,0.0,86,0.00,,,0.00,,2013-09-08 09:54:00,
2013-09-08 05:12:00,70.0,66.0,29.92,East,87,0.0,1.0,87,0.00,,,0.00,,2013-09-08 10:12:00,
2013-09-08 05:23:00,70.0,66.0,29.93,East,87,0.0,0.0,87,0.00,,,0.00,,2013-09-08 10:23:00,
2013-09-08 05:53:00,70.0,67.0,29.92,East,88,0.0,0.0,89,0.00,,,0.00,,2013-09-08 10:53:00,
2013-09-08 06:12:00,70.0,67.0,29.92,East,88,0.0,0.0,90,0.00,,,0.00,,2013-09-08 11:12:00,
2013-09-08 06:21:00,70.0,67.0,29.92,East,88,0.0,0.0,90,0.00,,,0.00,,2013-09-08 11:21:00,
2013-09-08 06:52:00,73.0,66.0,29.91,SW,225,2.0,6.0,80,0.00,,,0.00,,2013-09-08 11:52:00,
2013-09-08 07:12:00,74.0,66.0,29.92,SSW,198,0.0,1.0,76,0.00,,,0.00,,2013-09-08 12:12:00,
2013-09-08 07:22:00,74.0,66.0,29.92,SSW,198,0.0,1.0,77,0.00,,,0.00,,2013-09-08 12:22:00,
2013-09-08 07:52:00,73.0,66.0,29.91,SSW,198,0.0,1.0,80,0.00,,,0.00,,2013-09-08 12:52:00,
2013-09-08 08:12:00,72.0,66.0,29.91,SSW,205,0.0,2.0,81,0.00,,,0.00,,2013-09-08 13:12:00,
2013-09-08 08:22:00,73.0,66.0,29.91,SSW,205,0.0,2.0,80,0.00,,,0.00,,2013-09-08 13:22:00,
2013-09-08 08:52:00,76.0,67.0,29.91,SW,230,0.0,2.0,75,0.00,,,0.00,,2013-09-08 13:52:00,
2013-09-08 09:11:00,77.0,67.0,29.91,SW,231,0.0,2.0,72,0.00,,,0.00,,2013-09-08 14:11:00,
2013-09-08 09:22:00,79.0,68.0,29.91,WSW,248,1.0,4.0,70,0.00,,,0.00,,2013-09-08 14:22:00,
2013-09-08 09:52:00,82.0,69.0,29.91,WSW,239,2.0,5.0,66,0.00,,,0.00,,2013-09-08 14:52:00,
2013-09-08 10:23:00,84.0,70.0,29.90,WSW,245,1.0,6.0,63,0.00,,,0.00,,2013-09-08 15:23:00,
2013-09-08 10:55:00,86.0,69.0,29.90,WSW,254,3.0,8.0,58,0.00,,,0.00,,2013-09-08 15:55:00,
2013-09-08 11:23:00,88.0,70.0,29.90,WSW,250,2.0,7.0,55,0.00,,,0.00,,2013-09-08 16:23:00,
2013-09-08 11:53:00,91.0,71.0,29.90,WSW,243,1.0,6.0,53,0.00,,,0.00,,2013-09-08 16:53:00,
2013-09-08 12:23:00,92.0,72.0,29.90,West,271,3.0,6.0,52,0.00,,,0.00,,2013-09-08 17:23:00,
2013-09-08 12:53:00,94.0,73.0,29.89,SSW,196,2.0,7.0,51,0.00,,,0.00,,2013-09-08 17:53:00,
2013-09-08 13:22:00,93.0,72.0,29.89,SW,223,1.0,4.0,51,0.00,,,0.00,,2013-09-08 18:22:00,
2013-09-08 13:52:00,94.0,72.0,29.89,SW,236,0.0,1.0,50,0.00,,,0.00,,2013-09-08 18:52:00,
2013-09-08 14:12:00,97.0,72.0,29.88,SW,217,1.0,3.0,45,0.00,,,0.00,,2013-09-08 19:12:00,
2013-09-08 14:22:00,98.0,73.0,29.88,WSW,249,1.0,5.0,45,0.00,,,0.00,,2013-09-08 19:22:00,
2013-09-08 14:52:00,98.0,72.0,29.87,SW,226,2.0,6.0,43,0.00,,,0.00,,2013-09-08 19:52:00,
2013-09-08 15:22:00,99.0,72.0,29.86,SW,221,2.0,6.0,42,0.00,,,0.00,,2013-09-08 20:22:00,
2013-09-08 15:53:00,100.0,68.0,29.85,SW,233,4.0,9.0,36,0.00,,,0.00,,2013-09-08 20:53:00,
2013-09-08 16:22:00,99.0,68.0,29.85,South,175,3.0,7.0,37,0.00,,,0.00,,2013-09-08 21:22:00,
2013-09-08 16:54:00,99.0,68.0,29.84,SSW,205,3.0,7.0,37,0.00,,,0.00,,2013-09-08 21:54:00,
2013-09-08 17:24:00,99.0,66.0,29.83,SSW,198,4.0,7.0,34,0.00,,,0.00,,2013-09-08 22:24:00,
2013-09-08 17:53:00,98.0,67.0,29.83,SSE,148,2.0,7.0,37,0.00,,,0.00,,2013-09-08 22:53:00,
2013-09-08 18:22:00,97.0,68.0,29.83,SSW,196,2.0,7.0,39,0.00,,,0.00,,2013-09-08 23:22:00,
2013-09-08 18:52:00,95.0,67.0,29.83,South,184,3.0,8.0,40,0.00,,,0.00,,2013-09-08 23:52:00,
2013-09-08 19:11:00,94.0,67.0,29.83,SSE,167,1.0,6.0,42,0.00,,,0.00,,2013-09-09 00:11:00,
2013-09-08 19:22:00,93.0,67.0,29.83,SSW,197,2.0,6.0,43,0.00,,,0.00,,2013-09-09 00:22:00,
2013-09-08 19:52:00,90.0,66.0,29.83,South,183,3.0,7.0,45,0.00,,,0.00,,2013-09-09 00:52:00,
2013-09-08 20:52:00,86.0,66.0,29.83,SW,225,3.0,8.0,52,0.00,,,0.00,,2013-09-09 01:52:00,
2013-09-08 21:22:00,85.0,66.0,29.84,SW,217,2.0,6.0,54,0.00,,,0.00,,2013-09-09 02:22:00,
2013-09-08 21:42:00,84.0,66.0,29.84,SW,215,2.0,6.0,55,0.00,,,0.00,,2013-09-09 02:42:00,
2013-09-08 21:53:00,84.0,66.0,29.84,South,173,2.0,6.0,55,0.00,,,0.00,,2013-09-09 02:53:00,
2013-09-08 22:22:00,83.0,66.0,29.85,SSW,199,3.0,7.0,56,0.00,,,0.00,,2013-09-09 03:22:00,
2013-09-08 22:55:00,83.0,66.0,29.85,SW,222,3.0,6.0,56,0.00,,,0.00,,2013-09-09 03:55:00,
2013-09-08 23:14:00,82.0,65.0,29.85,SW,219,3.0,10.0,57,0.00,,,0.00,,2013-09-09 04:14:00,
2013-09-08 23:24:00,82.0,66.0,29.85,SSW,201,2.0,6.0,58,0.00,,,0.00,,2013-09-09 04:24:00,
2013-09-08 23:54:00,81.0,66.0,29.86,SW,231,4.0,10.0,60,0.00,,,0.00,,2013-09-09 04:54:00,